Codroy, Canada
Current Conditions -  °F | °C
As of 6:00 PM on Sunday 23 Nov 2014 (Local Time) from CWZB Reporting Station
Clear Clear  
Wind Chill: 23°   Ceiling: Unl
Heat Index: 35°   Visibility: 9mi
Dew Point: 27°   Wind: 25mph
Humidity: 71%   Direction: 300°WNW
Pressure: 29.96"   Gusts: 35mph
Location:  47.86°N, 59.36°W
Report Text: CWZB 232100Z AUTO 30022G30KT 9SM NSC 02/M03 A2996 RMK SLP145 PK WND 30031/// T00171030 WSI/SWOB
Loading
Personal Weather Stations






























Interactive Weather Map New forecast layout! Learn more

10-Day Weather Forecast

Advertisements
Track Severe Weather on mobile